Time;durP1;ratioP1;P1;durP2;ratioP2;P2;SDS_P1;SDS_P2;PMS_P1;PMS_P2;Temp;Humidity;BMP_temperature;BMP_pressure;BME280_temperature;BME280_humidity;BME280_pressure;Samples;Min_cycle;Max_cycle;Signal;HPM_P1;HPM_P2
2023/03/28 00:01:17;;;;;;;2.27;1.50;;;;;;;;;;5026376;28;20206;-27
2023/03/28 00:03:44;;;;;;;1.50;1.40;;;;;;;;;;5013889;28;20584;-26
2023/03/28 00:06:12;;;;;;;1.30;1.20;;;;;;;;;;5030528;28;20209;-30
2023/03/28 00:08:39;;;;;;;1.33;1.07;;;;;;;;;;5026917;28;20240;-27
2023/03/28 00:11:09;;;;;;;1.43;1.33;;;;;;;;;;5028976;28;20206;-24
2023/03/28 00:13:37;;;;;;;1.80;1.20;;;;;;;;;;5019703;28;20234;-27
2023/03/28 00:16:05;;;;;;;2.10;1.53;;;;;;;;;;5018250;28;20206;-27
2023/03/28 00:18:37;;;;;;;1.27;1.17;;;;;;;;;;5022836;28;20202;-27
2023/03/28 00:21:06;;;;;;;1.13;1.03;;;;;;;;;;5030400;28;20202;-29
2023/03/28 00:23:34;;;;;;;4.67;2.00;;;;;;;;;;5027257;28;20233;-26
2023/03/28 00:26:06;;;;;;;4.50;2.00;;;;;;;;;;5011332;28;20218;-26
2023/03/28 00:28:35;;;;;;;4.33;1.60;;;;;;;;;;5019975;28;20199;-28
2023/03/28 00:31:05;;;;;;;1.50;1.40;;;;;;;;;;5021520;28;20203;-27
2023/03/28 00:33:33;;;;;;;1.67;1.27;;;;;;;;;;5022025;28;20230;-26
2023/03/28 00:36:00;;;;;;;1.90;1.37;;;;;;;;;;5030328;28;20218;-28
2023/03/28 00:38:27;;;;;;;1.70;1.60;;;;;;;;;;5030768;28;20201;-27
2023/03/28 00:40:58;;;;;;;2.80;1.60;;;;;;;;;;5024339;28;20203;-24
2023/03/28 00:43:37;;;;;;;1.10;1.10;;;;;;;;;;5010551;28;20231;-29
2023/03/28 00:46:07;;;;;;;3.50;1.77;;;;;;;;;;5018602;28;20210;-26
2023/03/28 00:48:34;;;;;;;2.70;1.57;;;;;;;;;;5013412;28;20207;-28
2023/03/28 00:51:02;;;;;;;2.17;1.70;;;;;;;;;;5030370;28;20218;-28
2023/03/28 00:53:30;;;;;;;3.23;1.63;;;;;;;;;;5025267;28;20295;-28
2023/03/28 00:56:00;;;;;;;3.10;1.57;;;;;;;;;;5033259;28;20202;-27
2023/03/28 00:58:30;;;;;;;1.67;1.57;;;;;;;;;;5023635;28;20188;-27
2023/03/28 01:00:59;;;;;;;2.10;1.83;;;;;;;;;;5024548;28;20214;-28
2023/03/28 01:03:28;;;;;;;3.07;1.57;;;;;;;;;;5025018;28;20230;-29
2023/03/28 01:05:55;;;;;;;1.40;1.30;;;;;;;;;;5032278;28;20209;-28
2023/03/28 01:08:24;;;;;;;3.17;1.87;;;;;;;;;;5035039;28;20199;-28
2023/03/28 01:10:51;;;;;;;1.67;1.50;;;;;;;;;;5035672;28;20461;-27
2023/03/28 01:13:20;;;;;;;3.00;2.10;;;;;;;;;;5016803;28;20230;-28
2023/03/28 01:15:50;;;;;;;3.53;2.07;;;;;;;;;;5019066;28;20203;-27
2023/03/28 01:18:21;;;;;;;1.93;1.60;;;;;;;;;;5021678;28;20207;-27
2023/03/28 01:21:03;;;;;;;2.80;1.53;;;;;;;;;;5013293;28;20192;-25
2023/03/28 01:23:41;;;;;;;1.63;1.40;;;;;;;;;;5024706;28;20240;-27
2023/03/28 01:26:28;;;;;;;2.57;1.47;;;;;;;;;;5038639;28;20199;-26
2023/03/28 01:29:07;;;;;;;1.70;1.30;;;;;;;;;;5019824;28;20198;-30
2023/03/28 01:31:48;;;;;;;1.67;1.30;;;;;;;;;;5035899;28;20198;-27
2023/03/28 01:34:33;;;;;;;2.10;1.47;;;;;;;;;;5020949;28;20215;-28
2023/03/28 01:37:13;;;;;;;3.20;1.57;;;;;;;;;;5009392;28;20215;-27
2023/03/28 01:39:47;;;;;;;2.60;1.60;;;;;;;;;;5027884;28;20225;-29
2023/03/28 01:42:22;;;;;;;2.30;1.50;;;;;;;;;;5015427;28;20203;-26
2023/03/28 01:44:52;;;;;;;2.37;1.40;;;;;;;;;;5019701;28;20210;-28
2023/03/28 01:47:23;;;;;;;3.50;1.97;;;;;;;;;;5030857;28;20210;-26
2023/03/28 01:49:54;;;;;;;4.60;2.73;;;;;;;;;;5032615;28;20201;-26
2023/03/28 01:52:25;;;;;;;1.60;1.50;;;;;;;;;;5021864;28;20203;-28
2023/03/28 01:54:54;;;;;;;2.30;2.10;;;;;;;;;;5030496;28;20208;-28
2023/03/28 01:57:23;;;;;;;2.10;1.90;;;;;;;;;;5032056;28;20202;-29
2023/03/28 01:59:55;;;;;;;2.40;1.83;;;;;;;;;;5027395;28;20206;-26
2023/03/28 02:02:26;;;;;;;1.90;1.80;;;;;;;;;;5033371;28;20203;-29
2023/03/28 02:04:54;;;;;;;4.80;2.10;;;;;;;;;;5028781;28;20202;-25
2023/03/28 02:07:24;;;;;;;1.77;1.53;;;;;;;;;;5036347;28;20268;-27
2023/03/28 02:09:53;;;;;;;2.13;1.77;;;;;;;;;;5036253;28;20283;-26
2023/03/28 02:12:23;;;;;;;2.40;1.83;;;;;;;;;;5027548;28;20204;-26
2023/03/28 02:14:52;;;;;;;1.77;1.67;;;;;;;;;;5016581;28;20298;-29
2023/03/28 02:17:20;;;;;;;2.40;1.70;;;;;;;;;;5034168;28;20210;-27
2023/03/28 02:19:50;;;;;;;2.90;1.90;;;;;;;;;;5015903;28;20213;-28
2023/03/28 02:22:20;;;;;;;2.70;1.70;;;;;;;;;;5015693;28;20214;-29
2023/03/28 02:24:50;;;;;;;1.63;1.53;;;;;;;;;;5027375;28;20211;-30
2023/03/28 02:27:18;;;;;;;3.23;1.67;;;;;;;;;;5028084;28;20210;-27
2023/03/28 02:29:46;;;;;;;2.83;1.70;;;;;;;;;;5032118;28;20203;-26
2023/03/28 02:32:14;;;;;;;1.50;1.40;;;;;;;;;;5030551;28;20229;-27
2023/03/28 02:34:42;;;;;;;3.77;1.77;;;;;;;;;;5027222;28;20190;-27
2023/03/28 02:37:12;;;;;;;1.70;1.60;;;;;;;;;;5035499;28;20209;-28
2023/03/28 02:39:56;;;;;;;2.90;1.20;;;;;;;;;;5036563;28;20194;-28
2023/03/28 02:42:34;;;;;;;1.50;1.40;;;;;;;;;;5034951;28;20206;-30
2023/03/28 02:45:16;;;;;;;3.47;1.67;;;;;;;;;;5020358;28;20233;-27
2023/03/28 02:47:48;;;;;;;1.83;1.60;;;;;;;;;;5032418;28;20210;-26
2023/03/28 02:50:24;;;;;;;3.83;1.40;;;;;;;;;;5020224;28;20206;-27
2023/03/28 02:52:54;;;;;;;2.37;1.60;;;;;;;;;;5025624;28;20233;-29
2023/03/28 02:55:27;;;;;;;3.37;2.03;;;;;;;;;;5043128;28;20281;-27
2023/03/28 02:57:55;;;;;;;2.73;1.87;;;;;;;;;;5022571;28;20199;-29
2023/03/28 03:00:22;;;;;;;2.63;1.60;;;;;;;;;;5032826;28;20203;-28
2023/03/28 03:02:51;;;;;;;2.33;2.17;;;;;;;;;;5016118;28;20234;-28
2023/03/28 03:05:19;;;;;;;3.63;2.43;;;;;;;;;;5030864;28;20210;-30
2023/03/28 03:07:47;;;;;;;1.90;1.73;;;;;;;;;;5034794;28;20202;-27
2023/03/28 03:10:15;;;;;;;2.03;1.70;;;;;;;;;;5033095;28;20204;-26
2023/03/28 03:12:44;;;;;;;1.67;1.50;;;;;;;;;;5016393;28;20241;-26
2023/03/28 03:15:15;;;;;;;1.27;1.20;;;;;;;;;;5020599;28;20214;-28
2023/03/28 03:17:43;;;;;;;1.50;1.30;;;;;;;;;;5016535;28;20215;-27
2023/03/28 03:20:10;;;;;;;2.43;1.40;;;;;;;;;;5014748;28;20209;-26
2023/03/28 03:22:37;;;;;;;1.37;1.00;;;;;;;;;;5014341;28;20227;-26
2023/03/28 03:25:05;;;;;;;3.50;1.33;;;;;;;;;;5035431;28;20244;-27
2023/03/28 03:27:33;;;;;;;1.03;0.93;;;;;;;;;;5035552;28;20267;-27
2023/03/28 03:30:02;;;;;;;1.93;1.23;;;;;;;;;;5031618;28;20207;-28
2023/03/28 03:32:29;;;;;;;1.53;1.43;;;;;;;;;;5021363;28;20222;-28
2023/03/28 03:34:56;;;;;;;2.10;1.07;;;;;;;;;;5011609;28;20200;-25
2023/03/28 03:37:23;;;;;;;1.30;1.20;;;;;;;;;;5011737;28;20215;-25
2023/03/28 03:39:50;;;;;;;2.57;1.10;;;;;;;;;;5017942;28;20200;-28
2023/03/28 03:42:17;;;;;;;1.57;1.10;;;;;;;;;;5026420;28;20207;-26
2023/03/28 03:44:45;;;;;;;4.83;1.13;;;;;;;;;;5020468;28;20223;-27
2023/03/28 03:47:13;;;;;;;1.60;1.27;;;;;;;;;;5029872;28;20213;-26
2023/03/28 03:49:41;;;;;;;1.80;1.20;;;;;;;;;;5022425;28;20282;-28
2023/03/28 03:52:08;;;;;;;1.47;1.13;;;;;;;;;;5014847;28;20259;-25
2023/03/28 03:54:35;;;;;;;1.13;1.03;;;;;;;;;;5031626;28;20201;-27
2023/03/28 03:57:03;;;;;;;1.50;0.87;;;;;;;;;;5030696;28;20206;-27
2023/03/28 03:59:30;;;;;;;2.90;1.17;;;;;;;;;;5028091;28;20214;-28
2023/03/28 04:01:57;;;;;;;1.27;1.07;;;;;;;;;;5038278;28;20206;-27
2023/03/28 04:04:26;;;;;;;1.40;0.70;;;;;;;;;;5017429;28;20227;-29
2023/03/28 04:06:56;;;;;;;1.20;0.93;;;;;;;;;;5014133;28;20215;-27
2023/03/28 04:09:25;;;;;;;1.20;0.80;;;;;;;;;;5023763;28;20199;-28
2023/03/28 04:11:52;;;;;;;0.90;0.90;;;;;;;;;;5028744;28;20252;-28
2023/03/28 04:14:19;;;;;;;1.97;1.37;;;;;;;;;;5016908;28;20215;-28
2023/03/28 04:16:49;;;;;;;1.10;1.00;;;;;;;;;;5027730;28;20233;-25
2023/03/28 04:19:16;;;;;;;2.80;1.07;;;;;;;;;;5020906;28;20206;-30
2023/03/28 04:21:46;;;;;;;0.90;0.90;;;;;;;;;;5033519;28;20268;-27
2023/03/28 04:24:14;;;;;;;1.47;1.10;;;;;;;;;;5034278;28;20226;-28
2023/03/28 04:26:41;;;;;;;2.10;1.20;;;;;;;;;;5024323;28;20198;-28
2023/03/28 04:29:09;;;;;;;1.73;1.20;;;;;;;;;;5032317;28;20214;-29
2023/03/28 04:31:38;;;;;;;2.00;1.10;;;;;;;;;;5031176;28;20260;-29
2023/03/28 04:34:05;;;;;;;1.37;1.27;;;;;;;;;;5025345;28;20214;-28
2023/03/28 04:36:33;;;;;;;2.23;1.10;;;;;;;;;;5016822;28;20199;-26
2023/03/28 04:39:02;;;;;;;3.37;1.17;;;;;;;;;;5013428;28;20199;-29
2023/03/28 04:41:30;;;;;;;2.00;1.07;;;;;;;;;;5038148;28;20213;-25
2023/03/28 04:43:58;;;;;;;2.13;1.00;;;;;;;;;;5024786;28;20280;-29
2023/03/28 04:46:25;;;;;;;2.50;1.43;;;;;;;;;;5027378;28;20210;-26
2023/03/28 04:48:52;;;;;;;2.40;1.67;;;;;;;;;;5020060;28;20199;-29
2023/03/28 04:51:19;;;;;;;2.23;1.10;;;;;;;;;;5013507;28;20203;-27
2023/03/28 04:53:46;;;;;;;1.80;1.10;;;;;;;;;;5013594;28;20223;-29
2023/03/28 04:56:14;;;;;;;1.37;1.00;;;;;;;;;;5031595;28;20776;-27
2023/03/28 04:58:42;;;;;;;2.37;1.67;;;;;;;;;;5013621;28;20213;-26
2023/03/28 05:01:10;;;;;;;2.93;1.43;;;;;;;;;;5032986;28;20206;-27
2023/03/28 05:03:38;;;;;;;3.37;1.57;;;;;;;;;;5015914;28;20246;-28
2023/03/28 05:06:06;;;;;;;3.00;1.70;;;;;;;;;;5022236;28;20211;-29
2023/03/28 05:08:33;;;;;;;4.33;1.60;;;;;;;;;;5018716;28;20265;-28
2023/03/28 05:11:01;;;;;;;3.40;1.37;;;;;;;;;;5031276;28;20278;-26
2023/03/28 05:13:29;;;;;;;1.43;1.33;;;;;;;;;;5023809;28;20229;-27
2023/03/28 05:15:56;;;;;;;2.37;1.57;;;;;;;;;;5027491;28;20278;-27
2023/03/28 05:18:23;;;;;;;2.40;1.40;;;;;;;;;;5016859;28;20204;-29
2023/03/28 05:20:50;;;;;;;3.00;1.60;;;;;;;;;;5033217;28;20218;-29
2023/03/28 05:23:18;;;;;;;1.40;1.30;;;;;;;;;;5031921;28;20225;-24
2023/03/28 05:25:50;;;;;;;2.07;1.60;;;;;;;;;;5032875;28;20249;-26
2023/03/28 05:28:17;;;;;;;1.63;1.30;;;;;;;;;;5013638;28;20203;-25
2023/03/28 05:30:46;;;;;;;3.47;1.50;;;;;;;;;;5023623;28;20195;-27
2023/03/28 05:33:13;;;;;;;2.03;1.20;;;;;;;;;;5012220;28;20226;-28
2023/03/28 05:35:40;;;;;;;1.93;1.60;;;;;;;;;;5027981;28;20210;-26
2023/03/28 05:38:07;;;;;;;2.20;1.60;;;;;;;;;;5012887;28;20203;-28
2023/03/28 05:40:35;;;;;;;1.37;1.27;;;;;;;;;;5032236;28;20205;-27
2023/03/28 05:43:02;;;;;;;2.10;1.33;;;;;;;;;;5029626;28;20229;-25
2023/03/28 05:45:29;;;;;;;5.77;2.00;;;;;;;;;;5016092;28;20230;-27
2023/03/28 05:47:58;;;;;;;3.47;1.50;;;;;;;;;;5020680;28;20209;-26
2023/03/28 05:50:26;;;;;;;5.13;2.27;;;;;;;;;;5032197;28;20234;-25
2023/03/28 05:52:53;;;;;;;1.80;1.70;;;;;;;;;;5032063;28;20230;-27
2023/03/28 05:55:20;;;;;;;5.47;2.87;;;;;;;;;;5024277;28;20208;-25
2023/03/28 05:57:47;;;;;;;3.70;2.70;;;;;;;;;;5032502;28;20286;-28
2023/03/28 06:00:15;;;;;;;4.53;2.30;;;;;;;;;;5029235;28;20205;-28
2023/03/28 06:02:43;;;;;;;3.53;1.83;;;;;;;;;;5013778;28;20242;-31
2023/03/28 06:05:12;;;;;;;2.87;1.80;;;;;;;;;;5012461;28;20219;-26
2023/03/28 06:07:39;;;;;;;3.43;1.70;;;;;;;;;;5012444;28;20215;-29
2023/03/28 06:12:35;;;;;;;2.97;1.80;;;;;;;;;;5040322;28;20236;-38
2023/03/28 06:15:02;;;;;;;2.80;1.97;;;;;;;;;;5025748;28;20211;-33
2023/03/28 06:17:29;;;;;;;2.27;1.83;;;;;;;;;;5033446;28;20224;-29
2023/03/28 06:19:57;;;;;;;1.90;1.60;;;;;;;;;;5044517;28;20208;-29
2023/03/28 06:22:25;;;;;;;3.23;1.77;;;;;;;;;;5048317;28;20208;-36
2023/03/28 06:24:52;;;;;;;2.27;1.80;;;;;;;;;;5028695;28;20223;-32
2023/03/28 06:27:19;;;;;;;2.30;2.10;;;;;;;;;;5036136;28;20198;-33
2023/03/28 06:29:47;;;;;;;4.30;2.07;;;;;;;;;;5027435;28;20301;-30
2023/03/28 06:32:14;;;;;;;3.70;2.10;;;;;;;;;;5033969;28;20202;-35
2023/03/28 06:34:41;;;;;;;2.30;2.00;;;;;;;;;;5042225;28;20206;-33
2023/03/28 06:37:08;;;;;;;2.57;2.37;;;;;;;;;;5048913;28;20213;-36
2023/03/28 06:39:37;;;;;;;2.47;2.17;;;;;;;;;;5025254;28;20192;-34
2023/03/28 06:42:04;;;;;;;5.60;2.80;;;;;;;;;;5031691;28;20198;-35
2023/03/28 06:44:31;;;;;;;3.27;2.60;;;;;;;;;;5026541;28;20227;-29
2023/03/28 06:46:58;;;;;;;7.93;4.90;;;;;;;;;;5022060;28;20475;-34
2023/03/28 06:49:25;;;;;;;5.30;3.87;;;;;;;;;;5031647;28;20262;-36
2023/03/28 06:51:53;;;;;;;5.93;4.30;;;;;;;;;;5010694;28;20214;-32
2023/03/28 06:54:20;;;;;;;4.73;3.63;;;;;;;;;;5024826;28;20222;-36
2023/03/28 06:56:48;;;;;;;3.20;2.87;;;;;;;;;;5047692;28;20199;-36
2023/03/28 06:59:15;;;;;;;5.63;3.03;;;;;;;;;;5029703;28;20213;-33
2023/03/28 07:01:43;;;;;;;6.13;3.47;;;;;;;;;;5026397;28;20211;-37
2023/03/28 07:04:10;;;;;;;4.47;3.20;;;;;;;;;;5040603;28;20224;-37
2023/03/28 07:06:37;;;;;;;4.27;3.07;;;;;;;;;;5051821;28;20233;-36
2023/03/28 07:09:04;;;;;;;4.87;3.17;;;;;;;;;;5033217;28;20202;-37
2023/03/28 07:11:32;;;;;;;3.03;2.77;;;;;;;;;;5030554;28;20210;-33
2023/03/28 07:14:00;;;;;;;5.70;3.53;;;;;;;;;;5031247;28;20229;-33
2023/03/28 07:16:27;;;;;;;3.13;2.90;;;;;;;;;;5029915;28;20206;-35
2023/03/28 07:18:54;;;;;;;3.63;3.30;;;;;;;;;;5034832;28;20199;-35
2023/03/28 07:21:22;;;;;;;4.10;2.90;;;;;;;;;;5011409;28;20272;-34
2023/03/28 07:23:49;;;;;;;4.60;2.80;;;;;;;;;;5010617;28;20225;-38
2023/03/28 07:26:16;;;;;;;3.47;2.60;;;;;;;;;;5038697;28;20492;-37
2023/03/28 07:28:44;;;;;;;5.33;3.00;;;;;;;;;;5049404;28;20293;-35
2023/03/28 07:31:12;;;;;;;2.43;2.23;;;;;;;;;;5023635;28;20211;-39
2023/03/28 07:33:40;;;;;;;7.27;2.60;;;;;;;;;;5032668;28;20227;-35
2023/03/28 07:36:08;;;;;;;3.63;2.20;;;;;;;;;;5031109;28;20210;-33
2023/03/28 07:38:35;;;;;;;4.93;2.43;;;;;;;;;;5024636;28;20213;-34
2023/03/28 07:41:03;;;;;;;4.23;2.57;;;;;;;;;;5035799;28;20198;-36
2023/03/28 07:43:30;;;;;;;2.70;2.40;;;;;;;;;;5050387;28;20226;-33
2023/03/28 07:46:01;;;;;;;4.70;2.77;;;;;;;;;;5024692;28;20225;-35
2023/03/28 07:48:29;;;;;;;4.60;2.77;;;;;;;;;;5027869;28;20194;-37
2023/03/28 07:50:56;;;;;;;4.47;2.60;;;;;;;;;;5026977;28;20195;-34
2023/03/28 07:53:24;;;;;;;3.23;2.40;;;;;;;;;;5020932;28;20241;-34
2023/03/28 07:55:51;;;;;;;5.00;2.57;;;;;;;;;;5042183;28;20206;-32
2023/03/28 07:58:18;;;;;;;5.20;2.90;;;;;;;;;;5034684;28;20214;-35
2023/03/28 08:00:46;;;;;;;3.60;2.27;;;;;;;;;;5022447;28;20308;-37
2023/03/28 08:03:13;;;;;;;3.13;2.80;;;;;;;;;;5032790;28;20317;-31
2023/03/28 08:05:50;;;;;;;3.67;2.00;;;;;;;;;;5048175;28;20213;-35
2023/03/28 08:08:17;;;;;;;6.10;2.60;;;;;;;;;;5050077;28;20209;-31
2023/03/28 08:10:45;;;;;;;4.00;2.40;;;;;;;;;;5034594;28;20209;-33
2023/03/28 08:13:12;;;;;;;3.70;2.13;;;;;;;;;;5038282;28;20218;-34
2023/03/28 08:15:39;;;;;;;6.97;3.10;;;;;;;;;;5034168;28;20202;-31
2023/03/28 08:18:07;;;;;;;5.87;2.53;;;;;;;;;;5036468;28;20206;-34
2023/03/28 08:20:34;;;;;;;3.40;2.50;;;;;;;;;;5046351;28;20202;-34
2023/03/28 08:23:02;;;;;;;4.23;2.20;;;;;;;;;;5047526;28;20316;-32
2023/03/28 08:25:30;;;;;;;3.30;2.70;;;;;;;;;;5033120;28;20558;-35
2023/03/28 08:27:57;;;;;;;5.67;2.67;;;;;;;;;;5046427;28;20198;-32
2023/03/28 08:30:24;;;;;;;3.10;2.50;;;;;;;;;;5036171;28;20206;-29
2023/03/28 08:32:51;;;;;;;4.50;3.07;;;;;;;;;;5043623;28;20218;-33
2023/03/28 08:35:18;;;;;;;4.77;2.73;;;;;;;;;;5053516;28;20228;-28
2023/03/28 08:37:46;;;;;;;7.40;2.90;;;;;;;;;;5044692;28;20201;-34
2023/03/28 08:40:16;;;;;;;4.93;2.13;;;;;;;;;;5030723;28;20198;-38
2023/03/28 08:43:01;;;;;;;3.47;2.20;;;;;;;;;;5044220;28;20261;-33
2023/03/28 08:45:33;;;;;;;3.53;1.83;;;;;;;;;;5038103;28;20229;-32
2023/03/28 08:48:07;;;;;;;4.17;1.90;;;;;;;;;;5037721;28;20208;-33
2023/03/28 08:50:36;;;;;;;2.27;2.07;;;;;;;;;;5052412;28;20181;-33
2023/03/28 08:53:04;;;;;;;5.97;2.27;;;;;;;;;;5041040;28;20219;-29
2023/03/28 08:55:36;;;;;;;6.13;2.63;;;;;;;;;;5018062;28;20195;-38
2023/03/28 08:58:03;;;;;;;2.13;1.67;;;;;;;;;;5046400;28;20198;-35
2023/03/28 09:00:31;;;;;;;3.53;2.50;;;;;;;;;;5028921;28;20298;-36
2023/03/28 09:02:59;;;;;;;2.73;2.30;;;;;;;;;;5044201;28;20222;-30
2023/03/28 09:05:31;;;;;;;8.47;2.60;;;;;;;;;;5052001;28;20217;-33
2023/03/28 09:08:00;;;;;;;2.90;1.80;;;;;;;;;;5052511;28;20683;-40
2023/03/28 09:10:31;;;;;;;4.53;2.27;;;;;;;;;;5033316;28;20200;-37
2023/03/28 09:13:05;;;;;;;6.30;1.80;;;;;;;;;;5031376;28;20232;-32
2023/03/28 09:15:38;;;;;;;4.27;1.90;;;;;;;;;;5026082;28;20195;-34
2023/03/28 09:18:18;;;;;;;4.87;1.83;;;;;;;;;;5030414;28;20203;-34
2023/03/28 09:20:48;;;;;;;5.33;2.10;;;;;;;;;;5051767;28;20194;-34
2023/03/28 09:23:21;;;;;;;3.07;2.30;;;;;;;;;;5045557;28;20550;-34
2023/03/28 09:25:52;;;;;;;2.93;1.70;;;;;;;;;;5022987;28;20210;-34
2023/03/28 09:28:26;;;;;;;3.80;1.70;;;;;;;;;;5041666;28;20198;-38
2023/03/28 09:30:54;;;;;;;3.57;2.00;;;;;;;;;;5026514;28;20206;-33
2023/03/28 09:33:27;;;;;;;2.90;1.70;;;;;;;;;;5034974;28;20221;-35
2023/03/28 09:35:55;;;;;;;4.33;2.00;;;;;;;;;;5050772;28;20194;-31
2023/03/28 09:38:25;;;;;;;5.77;2.00;;;;;;;;;;5052243;28;20223;-33
2023/03/28 09:40:55;;;;;;;2.77;1.87;;;;;;;;;;5028826;28;20730;-33
2023/03/28 09:43:29;;;;;;;2.37;1.90;;;;;;;;;;5038122;28;20232;-32
2023/03/28 09:45:59;;;;;;;2.37;1.60;;;;;;;;;;5020893;28;20205;-34
2023/03/28 09:48:27;;;;;;;4.23;2.00;;;;;;;;;;5038077;28;20201;-30
2023/03/28 09:50:54;;;;;;;5.40;1.83;;;;;;;;;;5052224;28;20209;-34
2023/03/28 09:53:23;;;;;;;4.37;1.80;;;;;;;;;;5046383;28;20314;-35
2023/03/28 09:55:50;;;;;;;4.30;1.70;;;;;;;;;;5036752;28;20198;-31
2023/03/28 09:58:18;;;;;;;3.37;2.10;;;;;;;;;;5047185;28;20198;-32
2023/03/28 10:00:49;;;;;;;3.63;1.73;;;;;;;;;;5030577;28;20211;-31
2023/03/28 10:03:27;;;;;;;3.67;2.00;;;;;;;;;;5047495;28;20230;-35
2023/03/28 10:05:55;;;;;;;2.10;1.90;;;;;;;;;;5015239;28;20207;-37
2023/03/28 10:08:24;;;;;;;5.40;1.80;;;;;;;;;;5014099;28;20683;-33
2023/03/28 10:10:55;;;;;;;3.07;1.70;;;;;;;;;;5021247;28;20236;-34
2023/03/28 10:13:23;;;;;;;5.60;1.70;;;;;;;;;;5031907;28;20219;-36
2023/03/28 10:15:52;;;;;;;3.20;1.63;;;;;;;;;;5031643;28;20199;-34
2023/03/28 10:18:20;;;;;;;5.27;1.87;;;;;;;;;;5042356;28;20237;-36
2023/03/28 10:20:50;;;;;;;2.77;1.30;;;;;;;;;;5055519;28;20208;-34
2023/03/28 10:23:17;;;;;;;3.03;1.53;;;;;;;;;;5041663;28;20250;-33
2023/03/28 10:25:45;;;;;;;3.57;1.60;;;;;;;;;;5024759;28;20320;-34
2023/03/28 10:28:16;;;;;;;2.23;1.30;;;;;;;;;;5048441;28;20249;-34
2023/03/28 10:30:43;;;;;;;1.53;1.43;;;;;;;;;;5028053;28;20209;-35
2023/03/28 10:33:21;;;;;;;1.90;1.30;;;;;;;;;;5044605;28;20228;-35
2023/03/28 10:35:49;;;;;;;2.73;1.43;;;;;;;;;;5035103;28;20200;-37
2023/03/28 10:38:17;;;;;;;1.60;1.50;;;;;;;;;;5034915;28;20683;-32
2023/03/28 10:40:51;;;;;;;1.83;1.40;;;;;;;;;;5016698;28;20218;-35
2023/03/28 10:43:18;;;;;;;2.80;1.60;;;;;;;;;;5046511;28;20218;-36
2023/03/28 10:45:49;;;;;;;3.57;1.40;;;;;;;;;;5024915;28;20214;-32
2023/03/28 10:48:19;;;;;;;3.07;1.40;;;;;;;;;;5044974;28;20288;-31
2023/03/28 10:50:47;;;;;;;1.93;1.47;;;;;;;;;;5055004;28;20229;-34
2023/03/28 10:53:23;;;;;;;2.40;1.20;;;;;;;;;;5054750;28;20230;-36
2023/03/28 10:55:58;;;;;;;2.03;1.20;;;;;;;;;;5032970;28;20199;-35
2023/03/28 10:58:30;;;;;;;7.10;1.87;;;;;;;;;;5037094;28;20207;-32
2023/03/28 11:01:01;;;;;;;5.97;1.43;;;;;;;;;;5025376;28;20202;-36
2023/03/28 11:03:40;;;;;;;3.00;1.30;;;;;;;;;;5042059;28;20706;-38
2023/03/28 11:06:10;;;;;;;2.07;1.20;;;;;;;;;;5054559;28;20225;-36
2023/03/28 11:08:42;;;;;;;1.97;1.10;;;;;;;;;;5041661;28;20206;-32
2023/03/28 11:11:13;;;;;;;1.63;1.20;;;;;;;;;;5032020;28;20213;-35
2023/03/28 11:13:45;;;;;;;1.73;1.10;;;;;;;;;;5044820;28;20222;-35
2023/03/28 11:16:15;;;;;;;2.63;1.40;;;;;;;;;;5035158;28;20560;-33
2023/03/28 11:18:49;;;;;;;2.00;1.17;;;;;;;;;;5043730;28;20206;-32
2023/03/28 11:21:25;;;;;;;5.53;1.53;;;;;;;;;;5054456;28;20228;-31
2023/03/28 11:23:56;;;;;;;5.20;1.40;;;;;;;;;;5042815;28;20226;-32
2023/03/28 11:26:26;;;;;;;3.23;1.70;;;;;;;;;;5031511;28;20222;-35
2023/03/28 11:29:08;;;;;;;2.07;1.30;;;;;;;;;;5053775;28;20206;-33
2023/03/28 11:31:37;;;;;;;2.33;1.30;;;;;;;;;;5030480;28;20210;-33
2023/03/28 11:34:11;;;;;;;2.90;1.30;;;;;;;;;;5040047;28;20237;-31
2023/03/28 11:36:40;;;;;;;3.17;1.87;;;;;;;;;;5033916;28;20198;-38
2023/03/28 11:39:13;;;;;;;0.90;0.90;;;;;;;;;;5030457;28;20213;-31
2023/03/28 11:41:41;;;;;;;2.07;1.20;;;;;;;;;;5034596;28;20203;-31
2023/03/28 11:44:13;;;;;;;2.37;0.93;;;;;;;;;;5051834;28;20218;-32
2023/03/28 11:46:42;;;;;;;1.50;1.00;;;;;;;;;;5028016;28;20310;-35
2023/03/28 11:49:15;;;;;;;4.23;1.57;;;;;;;;;;5038274;28;20202;-38
2023/03/28 11:51:45;;;;;;;2.03;1.43;;;;;;;;;;5052453;28;20202;-34
2023/03/28 11:54:14;;;;;;;2.80;1.20;;;;;;;;;;5034340;28;20215;-38
2023/03/28 11:56:44;;;;;;;4.80;1.17;;;;;;;;;;5035919;28;20206;-38
2023/03/28 11:59:13;;;;;;;2.43;1.60;;;;;;;;;;5050585;28;20206;-35
2023/03/28 12:01:43;;;;;;;1.27;1.20;;;;;;;;;;5027000;28;20275;-32
2023/03/28 12:04:12;;;;;;;3.60;1.40;;;;;;;;;;5044691;28;20215;-31
2023/03/28 12:06:43;;;;;;;2.80;1.37;;;;;;;;;;5032327;28;20220;-36
2023/03/28 12:09:16;;;;;;;2.57;1.07;;;;;;;;;;5027842;28;20206;-32
2023/03/28 12:11:48;;;;;;;1.40;1.30;;;;;;;;;;5018966;28;20314;-35
2023/03/28 12:14:27;;;;;;;2.40;1.10;;;;;;;;;;5029875;28;20226;-35
2023/03/28 12:16:55;;;;;;;1.47;1.27;;;;;;;;;;5027540;28;20233;-34
2023/03/28 12:19:26;;;;;;;1.23;1.10;;;;;;;;;;5291202;23;20613;-34
2023/03/28 12:21:59;;;;;;;1.63;1.03;;;;;;;;;;5065118;28;20215;-39
2023/03/28 12:24:28;;;;;;;1.80;1.27;;;;;;;;;;5064004;28;20222;-41
2023/03/28 12:27:00;;;;;;;2.43;1.17;;;;;;;;;;5048205;28;20228;-37
2023/03/28 12:29:33;;;;;;;2.93;1.40;;;;;;;;;;5054020;28;20620;-36
2023/03/28 12:32:02;;;;;;;3.37;1.40;;;;;;;;;;5044747;28;20197;-37
2023/03/28 12:34:34;;;;;;;4.53;1.57;;;;;;;;;;5052136;28;20226;-39
2023/03/28 12:37:10;;;;;;;5.60;1.43;;;;;;;;;;5032049;28;20292;-38
2023/03/28 12:39:39;;;;;;;3.93;1.60;;;;;;;;;;5037704;28;20652;-43
2023/03/28 12:42:08;;;;;;;3.87;1.40;;;;;;;;;;5051302;28;20212;-42
2023/03/28 12:44:40;;;;;;;3.40;1.53;;;;;;;;;;5061470;28;20218;-40
2023/03/28 12:47:09;;;;;;;1.93;1.17;;;;;;;;;;5052793;28;20232;-38
2023/03/28 12:49:38;;;;;;;4.27;1.30;;;;;;;;;;5049987;28;20206;-36
2023/03/28 12:52:08;;;;;;;2.57;1.50;;;;;;;;;;5050781;28;20474;-35
2023/03/28 12:54:36;;;;;;;1.53;1.10;;;;;;;;;;5042811;28;20209;-39
2023/03/28 12:57:05;;;;;;;1.80;1.00;;;;;;;;;;5062358;28;20209;-40
2023/03/28 13:00:05;;;;;;;1.70;1.20;;;;;;;;;;5065558;28;20202;-43
2023/03/28 13:02:33;;;;;;;1.97;1.30;;;;;;;;;;5058234;28;20225;-35
2023/03/28 13:05:05;;;;;;;1.83;1.10;;;;;;;;;;5057731;28;20289;-43
2023/03/28 13:07:44;;;;;;;1.60;1.20;;;;;;;;;;5045061;28;20321;-38
2023/03/28 13:10:17;;;;;;;2.63;1.70;;;;;;;;;;5053260;28;20362;-42
2023/03/28 13:12:48;;;;;;;3.73;1.20;;;;;;;;;;5060622;28;20233;-40
2023/03/28 13:15:27;;;;;;;1.00;1.00;;;;;;;;;;5041702;28;20249;-41
2023/03/28 13:18:09;;;;;;;3.67;1.53;;;;;;;;;;5040900;28;20208;-37
2023/03/28 13:20:44;;;;;;;0.80;0.80;;;;;;;;;;5040609;28;20209;-39
2023/03/28 13:23:15;;;;;;;2.47;1.10;;;;;;;;;;5050914;28;20324;-36
2023/03/28 13:25:43;;;;;;;1.20;1.10;;;;;;;;;;5039255;28;20216;-36
2023/03/28 13:28:29;;;;;;;1.90;1.17;;;;;;;;;;5052788;28;20233;-39
2023/03/28 13:31:10;;;;;;;2.57;1.23;;;;;;;;;;5043033;28;20251;-43
2023/03/28 13:33:38;;;;;;;2.57;1.10;;;;;;;;;;5053749;28;20279;-37
2023/03/28 13:36:13;;;;;;;3.73;1.50;;;;;;;;;;5056272;28;20212;-41
2023/03/28 13:38:46;;;;;;;2.50;1.47;;;;;;;;;;5046584;28;20198;-39
2023/03/28 13:41:28;;;;;;;1.33;1.27;;;;;;;;;;5046915;28;20209;-35
2023/03/28 13:43:57;;;;;;;1.40;1.30;;;;;;;;;;5039074;28;20222;-41
2023/03/28 13:46:28;;;;;;;2.07;1.30;;;;;;;;;;5046877;28;20238;-36
2023/03/28 13:48:57;;;;;;;1.40;1.30;;;;;;;;;;5068795;28;20256;-40
2023/03/28 13:51:26;;;;;;;1.37;1.10;;;;;;;;;;5055574;28;20209;-37
2023/03/28 13:53:55;;;;;;;2.07;1.27;;;;;;;;;;5050295;28;20227;-39
2023/03/28 13:56:24;;;;;;;2.40;1.30;;;;;;;;;;5046391;28;20302;-37
2023/03/28 13:58:52;;;;;;;1.40;1.27;;;;;;;;;;5055486;28;20206;-39
2023/03/28 14:01:23;;;;;;;3.00;1.60;;;;;;;;;;5042582;28;20215;-38
2023/03/28 14:03:50;;;;;;;1.47;1.30;;;;;;;;;;5049265;28;20268;-41
2023/03/28 14:06:22;;;;;;;1.20;1.00;;;;;;;;;;5070849;28;20217;-44
2023/03/28 14:08:50;;;;;;;2.23;1.27;;;;;;;;;;5063988;28;20257;-35
2023/03/28 14:11:22;;;;;;;3.07;1.43;;;;;;;;;;5056383;28;20208;-37
2023/03/28 14:13:50;;;;;;;2.20;1.13;;;;;;;;;;5053493;28;20294;-39
2023/03/28 14:16:17;;;;;;;1.73;1.23;;;;;;;;;;5049226;28;20725;-38
2023/03/28 14:18:46;;;;;;;1.50;1.30;;;;;;;;;;5074350;28;20201;-42
2023/03/28 14:21:13;;;;;;;1.67;1.27;;;;;;;;;;5075816;28;20212;-38
2023/03/28 14:23:41;;;;;;;1.30;1.20;;;;;;;;;;5063417;28;20227;-40
2023/03/28 14:26:12;;;;;;;1.30;1.00;;;;;;;;;;5051516;28;20206;-40
2023/03/28 14:28:41;;;;;;;1.60;1.27;;;;;;;;;;5052964;28;20301;-40
2023/03/28 14:31:12;;;;;;;2.07;1.30;;;;;;;;;;5044968;28;20218;-38
2023/03/28 14:33:40;;;;;;;3.40;1.70;;;;;;;;;;5053417;28;20226;-40
2023/03/28 14:36:09;;;;;;;5.47;1.40;;;;;;;;;;5055039;28;20213;-41
2023/03/28 14:38:38;;;;;;;1.57;1.30;;;;;;;;;;5052884;28;20226;-41
2023/03/28 14:41:12;;;;;;;2.57;1.27;;;;;;;;;;5057153;28;20214;-39
2023/03/28 14:43:41;;;;;;;2.50;1.30;;;;;;;;;;5064771;28;20227;-38
2023/03/28 14:46:09;;;;;;;1.60;1.50;;;;;;;;;;5053004;28;20212;-42
2023/03/28 14:48:37;;;;;;;3.00;1.30;;;;;;;;;;5052014;28;20218;-39
2023/03/28 14:51:05;;;;;;;4.70;1.10;;;;;;;;;;5054795;28;20209;-37
2023/03/28 14:53:35;;;;;;;1.40;1.30;;;;;;;;;;5048982;28;20232;-38
2023/03/28 14:56:07;;;;;;;4.80;1.50;;;;;;;;;;5055678;28;20201;-38
2023/03/28 14:58:37;;;;;;;1.23;0.97;;;;;;;;;;5061869;28;20198;-35
2023/03/28 15:01:06;;;;;;;2.27;1.40;;;;;;;;;;5046599;28;20214;-43